Terminal Aerodrome Forecast
Issued by NWS Des Moines, IA

Home | Current Version | Previous Version | Text Only | Print | Product List | Glossary On
Versions: 1 2 3 4 5 6 7 8 9 10 11 12 13 14 15 16 17 18 19 20 21 22 23 24 25 26 27 28 29 30 31 32 33 34 35 36 37 38 39 40 41 42 43 44 45 46 47
000
FTUS43 KDMX 011920 AAA
TAFALO
TAF AMD
KALO 011920Z 0119/0218 04020G25KT 1SM -SN BR BKN022
     FM020100 35019G26KT 3SM BLSN OVC015
     FM020600 33011KT P6SM SCT015
     FM020900 33005KT P6SM SKC=

USA.gov is the U.S. government's official web portal to all federal, state and local government web resources and services.